Time;durP1;ratioP1;P1;durP2;ratioP2;P2;SDS_P1;SDS_P2;PMS_P1;PMS_P2;Temp;Humidity;BMP_temperature;BMP_pressure;BME280_temperature;BME280_humidity;BME280_pressure;Samples;Min_cycle;Max_cycle;Signal;HPM_P1;HPM_P2
2022/09/20 00:01:24;;;;;;;15.20;3.10;;;8.00;99.90;;;;;;5014063;28;20436;-73
2022/09/20 00:03:55;;;;;;;3.40;2.40;;;8.10;99.90;;;;;;5015372;28;20189;-73
2022/09/20 00:06:24;;;;;;;6.03;2.70;;;8.10;99.90;;;;;;5015306;28;20422;-73
2022/09/20 00:08:49;;;;;;;7.70;3.23;;;8.10;99.90;;;;;;5015318;28;20420;-74
2022/09/20 00:11:18;;;;;;;2.80;2.57;;;8.10;99.90;;;;;;5014969;28;20556;-74
2022/09/20 00:13:45;;;;;;;5.17;2.50;;;8.20;99.90;;;;;;5015063;28;20548;-74
2022/09/20 00:16:14;;;;;;;3.73;2.40;;;8.20;99.90;;;;;;5014941;28;20754;-74
2022/09/20 00:18:39;;;;;;;2.00;1.90;;;8.20;99.90;;;;;;5014939;28;20459;-74
2022/09/20 00:21:05;;;;;;;8.63;2.97;;;8.20;99.90;;;;;;5014927;28;20471;-74
2022/09/20 00:23:32;;;;;;;4.63;2.97;;;8.10;99.90;;;;;;5014982;28;20177;-74
2022/09/20 00:26:04;;;;;;;3.77;2.40;;;8.10;99.90;;;;;;5014914;28;20892;-74
2022/09/20 00:28:30;;;;;;;6.83;2.70;;;8.10;99.90;;;;;;5015123;28;20422;-74
2022/09/20 00:30:56;;;;;;;5.53;3.50;;;8.10;99.90;;;;;;5013578;28;20952;-74
2022/09/20 00:33:24;;;;;;;6.43;1.90;;;8.10;99.90;;;;;;5014582;28;20462;-74
2022/09/20 00:35:49;;;;;;;7.47;2.40;;;8.10;99.90;;;;;;5013352;28;20620;-74
2022/09/20 00:38:15;;;;;;;4.23;2.07;;;8.10;99.90;;;;;;5014542;28;20452;-74
2022/09/20 00:40:42;;;;;;;2.17;1.93;;;8.20;99.90;;;;;;5013387;28;20200;-74
2022/09/20 00:43:15;;;;;;;5.07;2.30;;;8.20;99.90;;;;;;5014584;28;20430;-74
2022/09/20 00:45:42;;;;;;;6.47;2.23;;;8.20;99.90;;;;;;5014487;28;20432;-74
2022/09/20 00:48:17;;;;;;;5.73;2.33;;;8.20;99.90;;;;;;5012660;28;20439;-74
2022/09/20 00:50:55;;;;;;;5.63;2.63;;;8.30;99.90;;;;;;5014383;28;20447;-74
2022/09/20 00:53:30;;;;;;;6.83;3.20;;;8.30;99.90;;;;;;5014227;28;20475;-75
2022/09/20 00:56:14;;;;;;;5.67;2.90;;;8.40;99.90;;;;;;5014297;28;20904;-75
2022/09/20 00:58:48;;;;;;;3.67;2.20;;;8.40;99.90;;;;;;5014235;28;20427;-71
2022/09/20 02:32:34;;;;;;;2.97;2.60;;;8.40;99.90;;;;;;5410063;22;20495;-75
2022/09/20 02:35:23;;;;;;;4.53;2.80;;;8.40;99.90;;;;;;5040444;28;20966;-73
2022/09/20 02:38:10;;;;;;;3.70;2.10;;;8.50;99.90;;;;;;5032659;28;20490;-74
2022/09/20 02:41:20;;;;;;;7.13;2.10;;;8.50;99.90;;;;;;5032478;28;20901;-74
2022/09/20 02:44:12;;;;;;;9.37;3.00;;;8.50;99.90;;;;;;5027082;28;20421;-74
2022/09/20 02:46:52;;;;;;;6.23;2.10;;;8.60;99.90;;;;;;5032206;28;20395;-73
2022/09/20 02:49:54;;;;;;;3.30;2.50;;;8.60;99.90;;;;;;5031639;28;20407;-73
2022/09/20 02:52:48;;;;;;;5.23;2.43;;;8.60;99.90;;;;;;5031635;28;20470;-74
2022/09/20 02:55:24;;;;;;;2.43;2.23;;;8.70;99.90;;;;;;5031672;28;20843;-73
2022/09/20 02:57:53;;;;;;;7.07;2.63;;;8.60;99.90;;;;;;5031743;28;20428;-73
2022/09/20 03:00:26;;;;;;;4.77;1.60;;;8.60;99.90;;;;;;5031384;28;20410;-73
2022/09/20 03:03:18;;;;;;;4.10;2.03;;;8.60;99.90;;;;;;5031651;28;20424;-73
2022/09/20 03:06:05;;;;;;;6.30;2.53;;;8.50;99.90;;;;;;5031511;28;20421;-73
2022/09/20 03:08:49;;;;;;;3.40;2.23;;;8.50;99.90;;;;;;5031556;28;20392;-75
2022/09/20 03:11:34;;;;;;;2.70;2.00;;;8.40;99.90;;;;;;5031344;28;20424;-73
2022/09/20 03:14:09;;;;;;;4.30;1.97;;;8.40;99.90;;;;;;5031678;28;20406;-74
2022/09/20 03:17:01;;;;;;;7.87;2.20;;;8.30;99.90;;;;;;5031507;28;20438;-75
2022/09/20 03:19:51;;;;;;;9.00;2.37;;;8.30;99.90;;;;;;5031299;28;20488;-73
2022/09/20 03:22:43;;;;;;;4.90;2.13;;;8.30;99.90;;;;;;5027100;28;20447;-73
2022/09/20 03:25:30;;;;;;;2.33;2.13;;;8.30;99.90;;;;;;5031550;28;20457;-73
2022/09/20 03:28:23;;;;;;;3.83;2.50;;;8.30;99.90;;;;;;5030904;28;20406;-74
2022/09/20 03:31:17;;;;;;;3.00;2.80;;;8.30;99.90;;;;;;5031302;28;20920;-73
2022/09/20 03:34:17;;;;;;;6.07;2.37;;;8.40;99.90;;;;;;5031581;28;20471;-74
2022/09/20 03:37:00;;;;;;;8.53;2.50;;;8.40;99.90;;;;;;5031447;28;20957;-74
2022/09/20 03:39:40;;;;;;;4.30;2.20;;;8.40;99.90;;;;;;5031318;28;20420;-73
2022/09/20 03:42:09;;;;;;;8.33;2.67;;;8.50;99.90;;;;;;5031300;28;20434;-74
2022/09/20 03:45:12;;;;;;;6.50;2.27;;;8.50;99.90;;;;;;5031316;28;20421;-74
2022/09/20 03:47:43;;;;;;;4.10;2.53;;;8.60;99.90;;;;;;5031288;28;20485;-74
2022/09/20 03:50:17;;;;;;;5.67;2.80;;;8.60;99.90;;;;;;5031383;28;20424;-74
2022/09/20 03:53:04;;;;;;;6.80;2.47;;;8.60;99.90;;;;;;5031234;28;20468;-76
2022/09/20 03:56:18;;;;;;;5.67;2.47;;;8.60;99.90;;;;;;5031241;28;20793;-74
2022/09/20 03:59:02;;;;;;;8.43;2.87;;;8.70;99.90;;;;;;5011577;28;20424;-73
2022/09/20 04:02:06;;;;;;;2.93;2.20;;;8.70;99.90;;;;;;5031066;28;20527;-75
2022/09/20 04:05:07;;;;;;;2.30;2.17;;;8.70;99.90;;;;;;5031142;28;20434;-75
2022/09/20 04:07:38;;;;;;;6.13;2.60;;;8.70;99.90;;;;;;5026372;28;20461;-73
2022/09/20 04:10:24;;;;;;;3.50;2.60;;;8.70;99.90;;;;;;5031370;28;20421;-73
2022/09/20 04:13:16;;;;;;;2.80;2.50;;;8.70;99.90;;;;;;5031266;28;20922;-73
2022/09/20 04:16:12;;;;;;;8.60;2.80;;;8.70;99.90;;;;;;5031221;28;20412;-74
2022/09/20 04:19:00;;;;;;;5.70;2.43;;;8.80;99.90;;;;;;5031084;28;20416;-73
2022/09/20 04:21:45;;;;;;;5.23;3.00;;;8.80;99.90;;;;;;5031197;28;20433;-73
2022/09/20 04:24:27;;;;;;;4.57;2.57;;;8.80;99.90;;;;;;5034710;28;20407;-74
2022/09/20 04:27:00;;;;;;;3.20;2.20;;;8.90;99.90;;;;;;5035080;28;20416;-74
2022/09/20 04:29:54;;;;;;;3.83;2.10;;;8.90;99.90;;;;;;5034611;28;20793;-73
2022/09/20 04:32:43;;;;;;;8.43;2.00;;;9.00;99.90;;;;;;5034477;28;21090;-73
2022/09/20 04:38:13;;;;;;;11.40;2.77;;;9.00;99.90;;;;;;5034858;28;20419;-74
2022/09/20 04:40:58;;;;;;;7.37;2.97;;;9.00;99.90;;;;;;5034442;28;20418;-74
2022/09/20 04:43:34;;;;;;;5.77;2.47;;;9.00;99.90;;;;;;5034536;28;20431;-75
2022/09/20 04:46:24;;;;;;;9.53;2.90;;;9.00;99.90;;;;;;5034478;28;20421;-74
2022/09/20 04:49:20;;;;;;;11.23;3.73;;;9.00;99.90;;;;;;5034326;28;20414;-74
2022/09/20 04:51:59;;;;;;;6.20;3.33;;;9.00;99.90;;;;;;5034745;28;20475;-72
2022/09/20 04:54:37;;;;;;;6.87;3.23;;;9.00;99.90;;;;;;5034512;28;20414;-72
2022/09/20 04:57:26;;;;;;;12.40;4.20;;;9.00;99.90;;;;;;5034384;28;20498;-72
2022/09/20 05:00:18;;;;;;;5.67;3.60;;;8.90;99.90;;;;;;5034049;28;20414;-74
2022/09/20 05:03:22;;;;;;;4.83;3.17;;;9.00;99.90;;;;;;5034028;28;20440;-74
2022/09/20 05:06:20;;;;;;;6.03;3.50;;;9.00;99.90;;;;;;5033866;28;20450;-74
2022/09/20 05:09:12;;;;;;;5.63;3.23;;;9.00;99.90;;;;;;5033795;28;20474;-74
2022/09/20 05:11:37;;;;;;;5.13;3.80;;;9.00;99.90;;;;;;5033724;28;20438;-74
2022/09/20 05:14:24;;;;;;;9.97;4.30;;;9.10;99.90;;;;;;5033720;28;20436;-74
2022/09/20 05:16:56;;;;;;;7.70;3.40;;;9.00;99.90;;;;;;5033825;28;20187;-74
2022/09/20 05:20:00;;;;;;;7.30;3.73;;;9.00;99.90;;;;;;5033335;28;20408;-74
2022/09/20 05:23:09;;;;;;;9.27;4.00;;;9.00;99.90;;;;;;5033458;28;20439;-74
2022/09/20 05:25:46;;;;;;;4.30;3.90;;;9.00;99.90;;;;;;5023251;28;20430;-74
2022/09/20 05:28:48;;;;;;;6.27;4.70;;;8.90;99.90;;;;;;5033286;28;20502;-74
2022/09/20 05:31:27;;;;;;;11.47;3.60;;;8.90;99.90;;;;;;5033269;28;20459;-74
2022/09/20 05:34:06;;;;;;;9.20;3.90;;;8.90;99.90;;;;;;5032718;28;20544;-74
2022/09/20 05:37:00;;;;;;;8.70;3.90;;;8.90;99.90;;;;;;5033560;28;20410;-74
2022/09/20 05:39:48;;;;;;;7.27;3.90;;;8.90;99.90;;;;;;5033264;28;20401;-74
2022/09/20 05:42:20;;;;;;;9.70;3.67;;;9.00;99.90;;;;;;5032895;28;20420;-74
2022/09/20 05:45:07;;;;;;;4.60;3.70;;;9.00;99.90;;;;;;5033297;28;20903;-74
2022/09/20 05:47:58;;;;;;;7.10;3.30;;;9.10;99.90;;;;;;5033289;28;20444;-74
2022/09/20 05:50:37;;;;;;;4.07;3.53;;;9.30;99.90;;;;;;5032969;28;20422;-74
2022/09/20 05:53:37;;;;;;;5.17;3.40;;;9.50;99.90;;;;;;5033058;28;20457;-74
2022/09/20 05:56:40;;;;;;;3.40;3.13;;;9.90;99.90;;;;;;5033171;28;20838;-74
2022/09/20 05:59:19;;;;;;;5.93;2.90;;;11.20;99.90;;;;;;5032707;28;20408;-74
2022/09/20 06:02:03;;;;;;;4.50;2.27;;;12.70;99.90;;;;;;5032860;28;20486;-74
2022/09/20 06:04:30;;;;;;;5.70;1.80;;;13.90;99.90;;;;;;5032375;28;20887;-72
2022/09/20 06:07:07;;;;;;;6.23;2.73;;;14.70;99.90;;;;;;5032552;28;20409;-73
2022/09/20 06:10:03;;;;;;;9.40;2.20;;;14.70;99.90;;;;;;5032576;28;20764;-73
2022/09/20 06:12:46;;;;;;;8.70;2.53;;;15.10;99.90;;;;;;5032251;28;20816;-73
2022/09/20 06:15:30;;;;;;;4.87;2.80;;;15.60;99.90;;;;;;5032300;28;20417;-73
2022/09/20 06:18:23;;;;;;;3.83;2.37;;;15.10;99.90;;;;;;5032235;28;20408;-73
2022/09/20 06:21:15;;;;;;;4.30;1.83;;;15.50;99.90;;;;;;5032187;28;20397;-73
2022/09/20 06:23:40;;;;;;;13.30;2.77;;;15.50;99.90;;;;;;5021994;28;20429;-73
2022/09/20 06:26:22;;;;;;;3.57;1.53;;;16.30;99.90;;;;;;5032233;28;20404;-74
2022/09/20 06:28:57;;;;;;;5.37;1.80;;;17.10;99.90;;;;;;5032027;28;20224;-73
2022/09/20 06:31:23;;;;;;;2.33;1.50;;;17.80;99.90;;;;;;5030657;28;20447;-74
2022/09/20 06:33:59;;;;;;;4.43;2.20;;;18.30;99.90;;;;;;5032515;28;20471;-73
2022/09/20 06:42:27;;;;;;;2.30;1.60;;;20.00;99.90;;;;;;5032163;28;20559;-73
2022/09/20 06:44:53;;;;;;;5.17;1.67;;;21.00;99.90;;;;;;5031768;28;20511;-73
2022/09/20 06:47:18;;;;;;;3.47;1.80;;;21.00;99.90;;;;;;5032179;28;20513;-73
2022/09/20 06:49:46;;;;;;;4.03;1.83;;;21.40;99.90;;;;;;5032046;28;20186;-74
2022/09/20 06:52:20;;;;;;;3.93;1.50;;;21.60;99.90;;;;;;5031960;28;20229;-73
2022/09/20 06:54:49;;;;;;;3.77;1.90;;;21.70;99.90;;;;;;5032058;28;20909;-74
2022/09/20 06:57:21;;;;;;;5.03;1.70;;;21.90;99.90;;;;;;5031866;28;20417;-74
2022/09/20 06:59:47;;;;;;;5.63;1.90;;;21.90;99.90;;;;;;5032059;28;20793;-73
2022/09/20 07:02:12;;;;;;;4.63;1.73;;;21.40;99.90;;;;;;5031725;28;20431;-73
2022/09/20 07:04:38;;;;;;;6.53;1.77;;;20.90;99.90;;;;;;5031851;28;20173;-74
2022/09/20 07:07:06;;;;;;;3.93;2.13;;;20.60;99.90;;;;;;5031791;28;20257;-73
2022/09/20 07:09:31;;;;;;;5.77;2.10;;;20.10;99.90;;;;;;5031494;28;20432;-74
2022/09/20 07:11:58;;;;;;;8.33;2.90;;;19.60;99.90;;;;;;5031612;28;21026;-74
2022/09/20 07:14:25;;;;;;;6.87;2.07;;;19.00;99.90;;;;;;5031581;28;20194;-74
2022/09/20 07:16:51;;;;;;;2.80;2.00;;;17.50;99.90;;;;;;5031764;28;20992;-74
2022/09/20 07:19:17;;;;;;;6.83;2.20;;;16.80;99.90;;;;;;5031414;28;20404;-74
2022/09/20 07:21:42;;;;;;;5.80;2.37;;;16.70;99.90;;;;;;5031501;28;20433;-74
2022/09/20 07:24:08;;;;;;;4.40;1.83;;;17.10;99.90;;;;;;5031628;28;20288;-74
2022/09/20 07:26:34;;;;;;;4.00;2.03;;;17.20;99.90;;;;;;5031464;28;20678;-74
2022/09/20 07:29:00;;;;;;;7.57;2.00;;;16.90;99.90;;;;;;5030075;28;20273;-73
2022/09/20 07:31:28;;;;;;;5.27;2.13;;;17.00;99.90;;;;;;5030971;28;20449;-74
2022/09/20 07:33:54;;;;;;;11.23;3.10;;;16.90;99.90;;;;;;5030491;28;20520;-74
2022/09/20 07:36:20;;;;;;;4.83;1.93;;;17.00;99.90;;;;;;5031291;28;20963;-73
2022/09/20 07:38:47;;;;;;;9.33;2.67;;;17.40;99.90;;;;;;5031767;28;20429;-74
2022/09/20 07:41:13;;;;;;;6.70;2.13;;;17.30;99.90;;;;;;5031266;28;20237;-74
2022/09/20 07:43:39;;;;;;;12.47;2.03;;;17.40;99.90;;;;;;5031680;28;20451;-74
2022/09/20 07:46:05;;;;;;;9.17;2.40;;;17.10;99.90;;;;;;5031530;28;20206;-73
2022/09/20 07:48:32;;;;;;;6.60;2.20;;;17.10;99.90;;;;;;5030999;28;20940;-72
2022/09/20 07:51:03;;;;;;;8.77;1.93;;;17.00;99.90;;;;;;5031401;28;20587;-73
2022/09/20 07:53:29;;;;;;;10.17;3.10;;;17.10;99.90;;;;;;5031190;28;20836;-73
2022/09/20 07:55:55;;;;;;;6.73;2.47;;;17.50;99.90;;;;;;5031192;28;20551;-74
2022/09/20 07:58:21;;;;;;;8.97;2.20;;;17.90;99.90;;;;;;5033879;28;20194;-73
2022/09/20 08:00:54;;;;;;;9.57;2.23;;;18.30;99.90;;;;;;5034978;28;20975;-74
2022/09/20 08:03:21;;;;;;;9.30;2.07;;;18.60;99.90;;;;;;5034967;28;20549;-74
2022/09/20 08:05:48;;;;;;;4.43;1.77;;;18.70;99.90;;;;;;5035165;28;20416;-74
2022/09/20 08:08:15;;;;;;;10.60;1.87;;;19.10;99.90;;;;;;5034538;28;20449;-74
2022/09/20 08:10:41;;;;;;;8.53;1.77;;;19.40;99.90;;;;;;5034951;28;20687;-74
2022/09/20 08:13:07;;;;;;;6.83;1.60;;;18.80;99.90;;;;;;5034607;28;20931;-73
2022/09/20 08:15:33;;;;;;;7.37;2.10;;;18.80;99.90;;;;;;5034835;28;20437;-74
2022/09/20 08:17:58;;;;;;;5.80;2.40;;;18.00;99.90;;;;;;5034617;28;20167;-73
2022/09/20 08:20:24;;;;;;;4.90;2.50;;;17.30;99.90;;;;;;5034478;28;20189;-74
2022/09/20 08:22:49;;;;;;;9.30;2.87;;;17.20;99.90;;;;;;5034585;28;20747;-74
2022/09/20 08:25:16;;;;;;;4.90;1.90;;;17.50;99.90;;;;;;5034242;28;20178;-74
2022/09/20 08:27:42;;;;;;;2.93;1.60;;;17.10;99.90;;;;;;5034396;28;20174;-73
2022/09/20 08:30:08;;;;;;;3.00;1.97;;;16.60;99.90;;;;;;5034372;28;20424;-73
2022/09/20 08:32:34;;;;;;;6.00;1.90;;;16.30;99.90;;;;;;5034280;28;20558;-74
2022/09/20 08:34:59;;;;;;;7.73;1.77;;;16.30;99.90;;;;;;5034281;28;20430;-73
2022/09/20 08:37:25;;;;;;;10.63;2.17;;;16.90;99.90;;;;;;5034340;28;20184;-73
2022/09/20 08:39:50;;;;;;;7.60;1.77;;;17.70;99.90;;;;;;5032727;28;20181;-74
2022/09/20 08:42:26;;;;;;;7.30;2.40;;;17.70;99.90;;;;;;5034107;28;20213;-73
2022/09/20 08:45:00;;;;;;;10.20;4.90;;;18.20;99.90;;;;;;5034271;28;20170;-73
2022/09/20 08:47:29;;;;;;;7.70;1.80;;;18.80;99.90;;;;;;5034157;28;20933;-74
2022/09/20 08:49:56;;;;;;;4.60;2.37;;;19.30;99.90;;;;;;5033894;28;20413;-74
2022/09/20 08:52:30;;;;;;;8.73;2.37;;;19.00;99.90;;;;;;5033876;28;20460;-74
2022/09/20 08:54:57;;;;;;;6.27;1.60;;;18.70;99.90;;;;;;5034092;28;20895;-73
2022/09/20 08:57:27;;;;;;;5.30;1.63;;;18.00;99.90;;;;;;5033932;28;20492;-74
2022/09/20 08:59:53;;;;;;;13.30;2.50;;;17.20;99.90;;;;;;5033871;28;20462;-74
2022/09/20 09:02:20;;;;;;;8.03;2.60;;;17.20;99.90;;;;;;5033772;28;20849;-74
2022/09/20 09:04:47;;;;;;;4.70;1.37;;;17.70;99.90;;;;;;5034466;28;20264;-74
2022/09/20 09:07:18;;;;;;;6.53;1.40;;;17.90;99.90;;;;;;5033678;28;20412;-74
2022/09/20 09:09:46;;;;;;;5.40;1.57;;;17.70;99.90;;;;;;5033188;28;20409;-74
2022/09/20 09:12:31;;;;;;;6.23;2.07;;;17.30;99.90;;;;;;5033325;28;20452;-73
2022/09/20 09:15:00;;;;;;;9.27;1.70;;;16.70;99.90;;;;;;5033734;28;20751;-73
2022/09/20 09:17:28;;;;;;;10.00;1.93;;;16.10;99.90;;;;;;5034361;28;20423;-74
2022/09/20 09:19:58;;;;;;;6.87;2.00;;;15.50;99.90;;;;;;5033678;28;20401;-74
2022/09/20 09:22:38;;;;;;;6.63;1.73;;;15.20;99.90;;;;;;5033677;28;20436;-74
2022/09/20 09:25:17;;;;;;;5.43;1.40;;;15.00;99.90;;;;;;5033795;28;20404;-74
2022/09/20 09:27:55;;;;;;;13.93;1.93;;;14.80;99.90;;;;;;5033613;28;20413;-71
2022/09/20 09:30:28;;;;;;;2.80;1.40;;;15.20;99.90;;;;;;5033169;28;20404;-73
2022/09/20 09:33:16;;;;;;;11.80;1.60;;;16.60;99.90;;;;;;5031868;28;20470;-73
2022/09/20 09:35:42;;;;;;;3.87;1.30;;;16.90;99.90;;;;;;5033220;28;20436;-73
2022/09/20 09:38:17;;;;;;;5.90;1.77;;;17.00;99.90;;;;;;5033212;28;20408;-73
2022/09/20 09:41:24;;;;;;;4.90;1.93;;;16.70;99.90;;;;;;5032985;28;20408;-73
2022/09/20 09:44:08;;;;;;;6.60;1.70;;;16.50;99.90;;;;;;5033252;28;20492;-74
2022/09/20 09:46:36;;;;;;;2.50;1.80;;;16.20;99.90;;;;;;5033076;28;20505;-73
2022/09/20 09:49:16;;;;;;;11.93;2.20;;;16.00;99.90;;;;;;5033013;28;20496;-73
2022/09/20 09:52:04;;;;;;;8.60;2.57;;;15.70;99.90;;;;;;5032871;28;20440;-73
2022/09/20 09:54:52;;;;;;;6.83;1.60;;;15.30;99.90;;;;;;5032900;28;20409;-73
2022/09/20 09:57:48;;;;;;;9.03;1.30;;;15.30;99.90;;;;;;5032399;28;20421;-73
2022/09/20 10:00:16;;;;;;;8.60;2.90;;;15.40;99.90;;;;;;5032759;28;20412;-73
2022/09/20 10:02:50;;;;;;;3.73;1.60;;;15.50;99.90;;;;;;5032896;28;20436;-73
2022/09/20 10:05:28;;;;;;;8.53;1.13;;;15.50;99.90;;;;;;5032678;28;20424;-73
2022/09/20 10:08:14;;;;;;;3.97;1.03;;;15.70;99.90;;;;;;5031478;28;20412;-73
2022/09/20 10:11:10;;;;;;;5.33;1.70;;;15.80;99.90;;;;;;5032713;28;20412;-73
2022/09/20 10:13:52;;;;;;;6.63;1.60;;;15.90;99.90;;;;;;5032662;28;20505;-74
2022/09/20 10:16:17;;;;;;;6.23;1.30;;;15.90;99.90;;;;;;5032443;28;20401;-73
2022/09/20 10:18:58;;;;;;;4.53;1.43;;;15.90;99.90;;;;;;5032372;28;20424;-74
2022/09/20 10:21:42;;;;;;;6.20;1.67;;;15.80;99.90;;;;;;5031589;28;20189;-73
2022/09/20 10:24:46;;;;;;;7.00;2.57;;;15.70;99.90;;;;;;5032532;28;20417;-73
2022/09/20 10:27:25;;;;;;;8.17;1.40;;;15.80;99.90;;;;;;5032548;28;20412;-74
2022/09/20 10:30:16;;;;;;;5.50;1.10;;;16.50;99.90;;;;;;5032516;28;20441;-74
2022/09/20 10:33:16;;;;;;;5.83;1.10;;;16.70;99.90;;;;;;5029568;28;20906;-74
2022/09/20 10:36:00;;;;;;;5.23;2.50;;;16.70;99.90;;;;;;5032240;28;20405;-73
2022/09/20 10:38:35;;;;;;;10.80;1.60;;;16.60;99.90;;;;;;5031922;28;20622;-73
2022/09/20 10:44:42;;;;;;;9.07;1.37;;;16.00;99.90;;;;;;5009714;28;20423;-73
2022/09/20 10:47:20;;;;;;;3.20;1.93;;;16.00;99.90;;;;;;5029445;28;20432;-73
2022/09/20 10:50:04;;;;;;;6.23;1.03;;;16.10;99.90;;;;;;5031766;28;20408;-73
2022/09/20 10:52:44;;;;;;;5.50;1.70;;;16.10;99.90;;;;;;5031660;28;20460;-73
2022/09/20 10:55:31;;;;;;;12.10;1.33;;;16.00;99.90;;;;;;5031864;28;20515;-74
2022/09/20 10:58:00;;;;;;;4.70;1.03;;;16.10;99.90;;;;;;5031973;28;20466;-73
2022/09/20 11:00:41;;;;;;;5.03;1.53;;;16.10;99.90;;;;;;5031521;28;20501;-74
2022/09/20 11:03:28;;;;;;;4.93;0.97;;;16.10;99.90;;;;;;5031868;28;20417;-73
2022/09/20 11:06:12;;;;;;;5.33;1.30;;;16.20;99.90;;;;;;5031617;28;20636;-73
2022/09/20 11:08:39;;;;;;;6.37;1.40;;;16.40;99.90;;;;;;5030323;28;20440;-73
2022/09/20 11:11:15;;;;;;;6.17;1.10;;;17.10;99.90;;;;;;5031347;28;20436;-73
2022/09/20 11:14:12;;;;;;;1.67;1.10;;;17.70;99.90;;;;;;5031670;28;20496;-73
2022/09/20 11:16:55;;;;;;;4.20;1.00;;;18.30;99.90;;;;;;5031401;28;20405;-73
2022/09/20 11:19:47;;;;;;;3.03;1.30;;;19.20;99.90;;;;;;5031301;28;21048;-73
2022/09/20 11:22:31;;;;;;;9.50;1.27;;;19.00;99.90;;;;;;5031562;28;20433;-74
2022/09/20 11:25:11;;;;;;;5.43;0.90;;;18.70;99.90;;;;;;5031558;28;20415;-74
2022/09/20 11:27:58;;;;;;;3.80;0.73;;;18.20;99.90;;;;;;5031969;28;20492;-73
2022/09/20 11:30:24;;;;;;;6.87;1.20;;;17.90;99.90;;;;;;5031387;28;20428;-73
2022/09/20 11:33:44;;;;;;;4.27;1.20;;;17.70;99.90;;;;;;5035359;28;20879;-74
2022/09/20 11:36:17;;;;;;;1.20;1.10;;;17.30;99.90;;;;;;5013299;28;20297;-73
2022/09/20 11:39:10;;;;;;;3.87;1.40;;;17.30;99.90;;;;;;5032020;28;20921;-73
2022/09/20 11:41:36;;;;;;;3.80;0.93;;;17.30;99.90;;;;;;5035261;28;20443;-73
2022/09/20 11:44:07;;;;;;;3.60;1.10;;;17.40;99.90;;;;;;5035426;28;20412;-73
2022/09/20 11:46:46;;;;;;;7.07;1.40;;;17.30;99.90;;;;;;5035401;28;20397;-73
2022/09/20 11:49:20;;;;;;;4.10;1.50;;;17.00;99.90;;;;;;5035277;28;20408;-73
2022/09/20 11:52:18;;;;;;;6.20;1.30;;;17.00;99.90;;;;;;5034930;28;20915;-73
2022/09/20 11:55:01;;;;;;;3.53;1.20;;;17.10;99.90;;;;;;5022887;28;20467;-74
2022/09/20 11:57:27;;;;;;;4.63;1.00;;;17.30;99.90;;;;;;5034879;28;20408;-74
2022/09/20 12:00:01;;;;;;;4.47;1.27;;;17.30;99.90;;;;;;5034870;28;20495;-73
2022/09/20 12:02:48;;;;;;;2.90;1.00;;;17.30;99.90;;;;;;5034901;28;20432;-73
2022/09/20 12:05:32;;;;;;;3.30;1.07;;;17.20;99.90;;;;;;5034716;28;20931;-73
2022/09/20 12:08:02;;;;;;;4.90;1.10;;;17.00;99.90;;;;;;5034902;28;20752;-72
2022/09/20 12:10:32;;;;;;;6.10;1.20;;;17.10;99.90;;;;;;5034773;28;20734;-73
2022/09/20 12:13:04;;;;;;;2.70;1.30;;;17.40;99.90;;;;;;5034712;28;20543;-73
2022/09/20 12:15:38;;;;;;;2.83;1.20;;;17.70;99.90;;;;;;5034776;28;20419;-74
2022/09/20 12:18:31;;;;;;;2.73;1.50;;;17.90;99.90;;;;;;5034737;28;20932;-74
2022/09/20 12:21:09;;;;;;;4.53;1.10;;;18.20;99.90;;;;;;5034530;28;20800;-73
2022/09/20 12:26:30;;;;;;;3.13;0.70;;;18.10;99.90;;;;;;5034750;28;20400;-74
2022/09/20 12:29:22;;;;;;;5.27;1.80;;;18.20;99.90;;;;;;5034203;28;20411;-74
2022/09/20 12:31:49;;;;;;;3.90;1.17;;;18.40;99.90;;;;;;5034004;28;20448;-74
2022/09/20 12:34:18;;;;;;;3.33;1.33;;;18.30;99.90;;;;;;5034102;28;20436;-74
2022/09/20 12:36:52;;;;;;;1.57;1.00;;;18.20;99.90;;;;;;5034410;28;20408;-74
2022/09/20 12:39:29;;;;;;;1.40;1.00;;;17.70;99.90;;;;;;5033874;28;20775;-74
2022/09/20 12:41:56;;;;;;;3.83;1.40;;;17.60;99.90;;;;;;5034251;28;20424;-73
2022/09/20 12:44:33;;;;;;;1.57;1.30;;;17.30;99.90;;;;;;5032186;28;20424;-74
2022/09/20 12:47:02;;;;;;;4.57;0.80;;;17.00;99.90;;;;;;5034118;28;20413;-74
2022/09/20 12:55:26;;;;;;;1.60;0.90;;;17.30;99.90;;;;;;5034444;28;20483;-73
2022/09/20 12:58:13;;;;;;;6.00;1.00;;;17.50;99.90;;;;;;5034543;28;20409;-74
2022/09/20 13:00:47;;;;;;;3.33;1.00;;;17.40;99.90;;;;;;5034036;28;20443;-73
2022/09/20 13:03:35;;;;;;;1.00;0.90;;;17.20;99.90;;;;;;5030731;28;20788;-74
2022/09/20 13:06:04;;;;;;;1.63;0.70;;;17.30;99.90;;;;;;5014916;28;20419;-73
2022/09/20 13:08:35;;;;;;;4.57;1.03;;;17.10;99.90;;;;;;5012903;28;20413;-74
2022/09/20 13:11:17;;;;;;;3.63;0.83;;;17.20;99.90;;;;;;5013840;28;20438;-74
2022/09/20 13:13:57;;;;;;;1.13;0.80;;;17.30;99.90;;;;;;5014142;28;20797;-74
2022/09/20 13:16:35;;;;;;;4.23;1.03;;;17.30;99.90;;;;;;5013653;28;20421;-74
2022/09/20 13:19:27;;;;;;;8.13;1.70;;;17.20;99.90;;;;;;5013826;28;20497;-73
2022/09/20 13:21:59;;;;;;;3.07;1.00;;;17.10;99.90;;;;;;5013656;28;21008;-74
2022/09/20 13:24:27;;;;;;;2.83;0.93;;;17.00;99.90;;;;;;5013755;28;20780;-74
2022/09/20 13:27:00;;;;;;;3.00;1.00;;;17.00;99.90;;;;;;5013616;28;20441;-74
2022/09/20 13:29:37;;;;;;;2.80;1.10;;;16.90;99.90;;;;;;5013491;28;20475;-73
2022/09/20 13:32:29;;;;;;;2.87;0.83;;;16.80;99.90;;;;;;5013683;28;20522;-74
2022/09/20 13:35:18;;;;;;;3.70;1.37;;;16.70;99.90;;;;;;5013620;28;20941;-74
2022/09/20 13:37:57;;;;;;;5.17;1.00;;;16.50;99.90;;;;;;5013682;28;20501;-73
2022/09/20 13:40:37;;;;;;;7.33;1.30;;;16.50;99.90;;;;;;5013131;28;20402;-74
2022/09/20 13:43:05;;;;;;;7.53;1.30;;;16.50;99.90;;;;;;5013568;28;20513;-74
2022/09/20 13:45:32;;;;;;;4.23;1.10;;;16.40;99.90;;;;;;5013258;28;20824;-73
2022/09/20 13:48:00;;;;;;;10.20;1.27;;;16.50;99.90;;;;;;5012210;28;20444;-74
2022/09/20 13:50:25;;;;;;;1.97;1.60;;;16.40;99.90;;;;;;5012980;28;20805;-74
2022/09/20 13:52:57;;;;;;;5.70;1.10;;;16.40;99.90;;;;;;5013100;28;20465;-73
2022/09/20 13:55:35;;;;;;;9.00;1.63;;;16.20;99.90;;;;;;5012151;28;20203;-74
2022/09/20 13:58:07;;;;;;;12.17;2.10;;;16.00;99.90;;;;;;5013406;28;20750;-73
2022/09/20 14:00:36;;;;;;;2.00;1.23;;;15.60;99.90;;;;;;5013082;28;20919;-74
2022/09/20 14:03:02;;;;;;;6.70;1.93;;;15.50;99.90;;;;;;5013137;28;20421;-73
2022/09/20 14:05:29;;;;;;;2.03;1.63;;;15.40;99.90;;;;;;5012955;28;20815;-74
2022/09/20 14:07:57;;;;;;;4.67;1.50;;;15.20;99.90;;;;;;5013187;28;20410;-73
2022/09/20 14:10:39;;;;;;;5.93;1.50;;;15.00;99.90;;;;;;5012438;28;20426;-73
2022/09/20 14:13:07;;;;;;;3.37;1.10;;;14.80;99.90;;;;;;5012575;28;20500;-73
2022/09/20 14:15:37;;;;;;;1.00;0.90;;;14.80;99.90;;;;;;5012578;28;20429;-73
2022/09/20 14:18:05;;;;;;;3.73;1.23;;;14.70;99.90;;;;;;5012779;28;20401;-73
2022/09/20 14:20:32;;;;;;;5.50;0.90;;;14.70;99.90;;;;;;5012226;28;20468;-73
2022/09/20 14:22:58;;;;;;;4.37;1.00;;;14.50;99.90;;;;;;5012528;28;20440;-74
2022/09/20 14:25:25;;;;;;;5.80;1.17;;;14.60;99.90;;;;;;5012425;28;20425;-73
2022/09/20 14:28:17;;;;;;;1.90;1.33;;;14.50;99.90;;;;;;5012514;28;20785;-74
2022/09/20 14:30:45;;;;;;;2.07;1.50;;;14.50;99.90;;;;;;5012333;28;20413;-73
2022/09/20 14:33:17;;;;;;;7.60;1.40;;;14.40;99.90;;;;;;5012149;28;20807;-74
2022/09/20 14:35:48;;;;;;;6.33;1.90;;;14.40;99.90;;;;;;5012437;28;20933;-73
2022/09/20 14:38:16;;;;;;;4.20;2.33;;;14.30;99.90;;;;;;5012055;28;20417;-71
2022/09/20 14:40:47;;;;;;;6.70;1.50;;;14.30;99.90;;;;;;5012113;28;20501;-74
2022/09/20 14:43:33;;;;;;;2.07;1.30;;;14.30;99.90;;;;;;5012117;28;20888;-74
2022/09/20 14:46:27;;;;;;;3.10;1.57;;;14.30;99.90;;;;;;5012424;28;20428;-73
2022/09/20 14:48:52;;;;;;;1.43;1.30;;;14.40;99.90;;;;;;5011963;28;20831;-73
2022/09/20 14:51:21;;;;;;;1.07;1.03;;;14.40;99.90;;;;;;5011932;28;20509;-73
2022/09/20 14:53:52;;;;;;;5.13;1.50;;;14.40;99.90;;;;;;5012028;28;20210;-73
2022/09/20 14:56:37;;;;;;;1.77;1.10;;;14.50;99.90;;;;;;5012084;28;20877;-73
2022/09/20 14:59:12;;;;;;;2.17;1.00;;;14.50;99.90;;;;;;5011836;28;20409;-73
2022/09/20 15:01:41;;;;;;;4.03;1.20;;;14.70;99.90;;;;;;5011814;28;20482;-75
2022/09/20 15:04:08;;;;;;;4.50;1.13;;;14.90;99.90;;;;;;5011909;28;20471;-73
2022/09/20 15:06:40;;;;;;;2.10;1.73;;;15.00;99.90;;;;;;5011633;28;20424;-73
2022/09/20 15:09:08;;;;;;;4.60;2.57;;;15.20;99.90;;;;;;5011668;28;20417;-74
2022/09/20 15:11:33;;;;;;;3.20;1.37;;;15.30;99.90;;;;;;5011654;28;20926;-73
2022/09/20 15:13:59;;;;;;;3.27;1.00;;;15.40;99.90;;;;;;5011924;28;20468;-73
2022/09/20 15:16:26;;;;;;;0.77;0.73;;;15.50;99.90;;;;;;5011578;28;20281;-74
2022/09/20 15:18:51;;;;;;;2.03;0.97;;;15.50;99.90;;;;;;5010304;28;20182;-73
2022/09/20 15:21:17;;;;;;;2.07;0.97;;;15.50;99.90;;;;;;5011355;28;20433;-73
2022/09/20 15:23:42;;;;;;;5.97;0.80;;;15.40;99.90;;;;;;5011925;28;20598;-74
2022/09/20 15:26:12;;;;;;;3.83;1.13;;;15.30;99.90;;;;;;5011662;28;20733;-73
2022/09/20 15:28:37;;;;;;;1.23;1.10;;;15.20;99.90;;;;;;5011543;28;20209;-73
2022/09/20 15:31:03;;;;;;;3.80;0.93;;;15.00;99.90;;;;;;5011269;28;20489;-73
2022/09/20 15:33:31;;;;;;;1.20;0.80;;;14.90;99.90;;;;;;5011499;28;20210;-73